KQEL

Gapyong

Gapyong, South Korea
METAR KQEL 120110Z AUTO 14002KT 6000 CLR M05/M07 A3050 RMK A02 TSNO
Observed Flight Rules
Dec-12 @ 01:10 UTC (14 minutes ago) Marginal Visual Flight Rules
Wind Visibility Clouds
140° at 2 knots 6,003 meters
  • Clear skies
Temperatures Readings
Current -5°C / 23°F
Dewpoint -7°C / 19°F
Humidity 86%
Altimeter 30.5" Hg
Pressure 1033 hPa
METAR KQEL 120110Z AUTO 14002KT 6000 CLR M05/M07 A3050 RMK A02 TSNO
Observed Flight Rules
Dec-12 @ 01:10 UTC
(14 minutes ago)
MVFR
Wind Visibility
140° at 2 knots 6,003 meters
Clouds
  • Clear skies
Temperature Dewpoint
-5°C / 23°F -7°C / 19°F
Humidity Altimeter Pressure
86% 30.5" Hg 1033 hPa